sensor_id;sensor_type;location;lat;lon;timestamp;pressure;altitude;pressure_sealevel;temperature;humidity
82951;BME280;72737;53.332;6.514;2023-11-22T00:01:52;102824.16;;;17.90;62.88
82951;BME280;72737;53.332;6.514;2023-11-22T00:04:17;102813.13;;;17.80;63.13
82951;BME280;72737;53.332;6.514;2023-11-22T00:06:43;102824.41;;;17.84;63.07
82951;BME280;72737;53.332;6.514;2023-11-22T00:09:08;102828.25;;;17.83;62.80
82951;BME280;72737;53.332;6.514;2023-11-22T00:11:35;102829.91;;;17.79;63.26
82951;BME280;72737;53.332;6.514;2023-11-22T00:14:00;102830.75;;;17.84;62.67
82951;BME280;72737;53.332;6.514;2023-11-22T00:16:26;102830.75;;;17.89;62.76
82951;BME280;72737;53.332;6.514;2023-11-22T00:18:51;102824.97;;;17.96;62.61
82951;BME280;72737;53.332;6.514;2023-11-22T00:21:16;102821.41;;;17.90;62.26
82951;BME280;72737;53.332;6.514;2023-11-22T00:23:42;102816.44;;;17.87;62.67
82951;BME280;72737;53.332;6.514;2023-11-22T00:26:08;102822.50;;;17.84;62.75
82951;BME280;72737;53.332;6.514;2023-11-22T00:28:33;102825.25;;;17.89;62.47
82951;BME280;72737;53.332;6.514;2023-11-22T00:30:59;102835.66;;;17.77;62.58
82951;BME280;72737;53.332;6.514;2023-11-22T00:33:25;102843.34;;;17.70;62.78
82951;BME280;72737;53.332;6.514;2023-11-22T00:35:51;102844.97;;;17.66;62.79
82951;BME280;72737;53.332;6.514;2023-11-22T00:38:18;102857.88;;;17.66;62.84
82951;BME280;72737;53.332;6.514;2023-11-22T00:40:43;102849.34;;;17.62;62.76
82951;BME280;72737;53.332;6.514;2023-11-22T00:43:09;102854.78;;;17.57;62.44
82951;BME280;72737;53.332;6.514;2023-11-22T00:45:35;102841.31;;;17.55;62.73
82951;BME280;72737;53.332;6.514;2023-11-22T00:48:00;102841.03;;;17.52;62.35
82951;BME280;72737;53.332;6.514;2023-11-22T00:50:26;102851.50;;;17.55;62.43
82951;BME280;72737;53.332;6.514;2023-11-22T00:52:51;102838.84;;;17.54;62.16
82951;BME280;72737;53.332;6.514;2023-11-22T00:55:16;102852.03;;;17.57;62.24
82951;BME280;72737;53.332;6.514;2023-11-22T00:57:42;102855.69;;;17.63;61.90
82951;BME280;72737;53.332;6.514;2023-11-22T01:00:08;102855.69;;;17.68;61.93
82951;BME280;72737;53.332;6.514;2023-11-22T01:02:35;102859.84;;;17.70;61.84
82951;BME280;72737;53.332;6.514;2023-11-22T01:05:05;102855.94;;;17.61;61.71
82951;BME280;72737;53.332;6.514;2023-11-22T01:07:33;102863.66;;;17.59;62.12
82951;BME280;72737;53.332;6.514;2023-11-22T01:09:58;102873.97;;;17.47;62.41
82951;BME280;72737;53.332;6.514;2023-11-22T01:12:24;102872.34;;;17.51;62.57
82951;BME280;72737;53.332;6.514;2023-11-22T01:14:49;102873.72;;;17.48;62.67
82951;BME280;72737;53.332;6.514;2023-11-22T01:17:15;102870.91;;;17.38;63.36
82951;BME280;72737;53.332;6.514;2023-11-22T01:19:40;102849.47;;;17.40;63.28
82951;BME280;72737;53.332;6.514;2023-11-22T01:22:05;102838.19;;;17.37;63.17
82951;BME280;72737;53.332;6.514;2023-11-22T01:24:31;102842.56;;;17.33;63.47
82951;BME280;72737;53.332;6.514;2023-11-22T01:26:56;102856.31;;;17.33;63.40
82951;BME280;72737;53.332;6.514;2023-11-22T01:29:22;102842.56;;;17.33;63.56
82951;BME280;72737;53.332;6.514;2023-11-22T01:31:47;102828.84;;;17.33;63.12
82951;BME280;72737;53.332;6.514;2023-11-22T01:34:13;102844.25;;;17.34;63.62
82951;BME280;72737;53.332;6.514;2023-11-22T01:36:42;102839.84;;;17.38;63.63
82951;BME280;72737;53.332;6.514;2023-11-22T01:39:10;102856.91;;;17.40;63.18
82951;BME280;72737;53.332;6.514;2023-11-22T01:41:35;102848.38;;;17.41;63.35
82951;BME280;72737;53.332;6.514;2023-11-22T01:44:01;102847.56;;;17.41;63.33
82951;BME280;72737;53.332;6.514;2023-11-22T01:46:27;102858.59;;;17.46;63.55
82951;BME280;72737;53.332;6.514;2023-11-22T01:48:54;102862.72;;;17.48;63.61
82951;BME280;72737;53.332;6.514;2023-11-22T01:51:21;102862.19;;;17.51;63.42
82951;BME280;72737;53.332;6.514;2023-11-22T01:53:48;102868.50;;;17.52;63.42
82951;BME280;72737;53.332;6.514;2023-11-22T01:56:14;102869.63;;;17.56;63.26
82951;BME280;72737;53.332;6.514;2023-11-22T01:58:41;102865.31;;;17.60;63.07
82951;BME280;72737;53.332;6.514;2023-11-22T02:01:07;102875.19;;;17.61;62.96
82951;BME280;72737;53.332;6.514;2023-11-22T02:03:34;102880.44;;;17.63;63.02
82951;BME280;72737;53.332;6.514;2023-11-22T02:06:00;102877.69;;;17.68;63.10
82951;BME280;72737;53.332;6.514;2023-11-22T02:08:25;102875.22;;;17.71;62.84
82951;BME280;72737;53.332;6.514;2023-11-22T02:11:00;102868.66;;;17.72;62.84
82951;BME280;72737;53.332;6.514;2023-11-22T02:13:29;102867.81;;;17.72;62.67
82951;BME280;72737;53.332;6.514;2023-11-22T02:15:54;102864.25;;;17.76;62.84
82951;BME280;72737;53.332;6.514;2023-11-22T02:18:22;102881.91;;;17.80;62.76
82951;BME280;72737;53.332;6.514;2023-11-22T02:20:49;102875.56;;;17.80;62.64
82951;BME280;72737;53.332;6.514;2023-11-22T02:23:14;102876.41;;;17.80;62.47
82951;BME280;72737;53.332;6.514;2023-11-22T02:25:40;102875.28;;;17.81;62.85
82951;BME280;72737;53.332;6.514;2023-11-22T02:28:05;102865.94;;;17.82;62.49
82951;BME280;72737;53.332;6.514;2023-11-22T02:30:34;102857.94;;;17.81;62.54
82951;BME280;72737;53.332;6.514;2023-11-22T02:32:59;102847.22;;;17.79;62.49
82951;BME280;72737;53.332;6.514;2023-11-22T02:35:25;102846.69;;;17.82;62.72
82951;BME280;72737;53.332;6.514;2023-11-22T02:37:52;102857.94;;;17.81;62.52
82951;BME280;72737;53.332;6.514;2023-11-22T02:40:19;102858.22;;;17.79;62.31
82951;BME280;72737;53.332;6.514;2023-11-22T02:42:46;102858.75;;;17.76;62.75
82951;BME280;72737;53.332;6.514;2023-11-22T02:45:13;102856.84;;;17.77;62.43
82951;BME280;72737;53.332;6.514;2023-11-22T02:47:39;102861.50;;;17.76;62.28
82951;BME280;72737;53.332;6.514;2023-11-22T02:50:05;102858.75;;;17.76;62.48
82951;BME280;72737;53.332;6.514;2023-11-22T02:52:31;102857.63;;;17.72;62.47
82951;BME280;72737;53.332;6.514;2023-11-22T02:54:57;102861.47;;;17.71;62.70
82951;BME280;72737;53.332;6.514;2023-11-22T02:57:23;102856.56;;;17.73;62.64
82951;BME280;72737;53.332;6.514;2023-11-22T02:59:48;102860.66;;;17.71;62.50
82951;BME280;72737;53.332;6.514;2023-11-22T03:02:13;102862.88;;;17.69;62.70
82951;BME280;72737;53.332;6.514;2023-11-22T03:04:41;102860.63;;;17.66;62.37
82951;BME280;72737;53.332;6.514;2023-11-22T03:07:07;102875.22;;;17.66;62.46
82951;BME280;72737;53.332;6.514;2023-11-22T03:09:32;102886.22;;;17.66;62.56
82951;BME280;72737;53.332;6.514;2023-11-22T03:11:58;102894.19;;;17.63;62.32
82951;BME280;72737;53.332;6.514;2023-11-22T03:14:23;102903.50;;;17.62;62.11
82951;BME280;72737;53.332;6.514;2023-11-22T03:16:49;102911.22;;;17.60;62.35
82951;BME280;72737;53.332;6.514;2023-11-22T03:19:14;102915.03;;;17.58;62.21
82951;BME280;72737;53.332;6.514;2023-11-22T03:21:40;102921.59;;;17.57;62.42
82951;BME280;72737;53.332;6.514;2023-11-22T03:24:09;102927.66;;;17.54;62.51
82951;BME280;72737;53.332;6.514;2023-11-22T03:26:35;102925.16;;;17.53;62.34
82951;BME280;72737;53.332;6.514;2023-11-22T03:29:01;102933.94;;;17.50;62.18
82951;BME280;72737;53.332;6.514;2023-11-22T03:31:27;102939.44;;;17.50;62.14
82951;BME280;72737;53.332;6.514;2023-11-22T03:33:54;102927.88;;;17.48;62.66
82951;BME280;72737;53.332;6.514;2023-11-22T03:36:20;102926.22;;;17.47;62.13
82951;BME280;72737;53.332;6.514;2023-11-22T03:38:45;102925.38;;;17.46;62.19
82951;BME280;72737;53.332;6.514;2023-11-22T03:41:11;102920.97;;;17.45;62.11
82951;BME280;72737;53.332;6.514;2023-11-22T03:43:36;102923.44;;;17.42;62.07
82951;BME280;72737;53.332;6.514;2023-11-22T03:46:02;102921.78;;;17.41;62.39
82951;BME280;72737;53.332;6.514;2023-11-22T03:48:30;102913.53;;;17.41;62.20
82951;BME280;72737;53.332;6.514;2023-11-22T03:50:56;102909.66;;;17.37;62.02
82951;BME280;72737;53.332;6.514;2023-11-22T03:53:21;102908.81;;;17.36;62.09
82951;BME280;72737;53.332;6.514;2023-11-22T03:55:49;102909.91;;;17.35;62.19
82951;BME280;72737;53.332;6.514;2023-11-22T03:58:15;102901.66;;;17.35;62.07
82951;BME280;72737;53.332;6.514;2023-11-22T04:00:40;102910.44;;;17.32;61.98
82951;BME280;72737;53.332;6.514;2023-11-22T04:03:06;102912.13;;;17.33;61.95
82951;BME280;72737;53.332;6.514;2023-11-22T04:05:32;102905.22;;;17.31;61.85
82951;BME280;72737;53.332;6.514;2023-11-22T04:07:57;102906.88;;;17.32;61.80
82951;BME280;72737;53.332;6.514;2023-11-22T04:10:23;102920.88;;;17.30;62.03
82951;BME280;72737;53.332;6.514;2023-11-22T04:12:49;102921.16;;;17.29;62.02
82951;BME280;72737;53.332;6.514;2023-11-22T04:15:14;102915.09;;;17.27;61.75
82951;BME280;72737;53.332;6.514;2023-11-22T04:17:40;102900.25;;;17.28;61.67
82951;BME280;72737;53.332;6.514;2023-11-22T04:20:07;102911.25;;;17.28;61.87
82951;BME280;72737;53.332;6.514;2023-11-22T04:22:36;102905.47;;;17.24;61.74
82951;BME280;72737;53.332;6.514;2023-11-22T04:25:02;102902.44;;;17.26;61.99
82951;BME280;72737;53.332;6.514;2023-11-22T04:27:28;102900.81;;;17.25;62.10
82951;BME280;72737;53.332;6.514;2023-11-22T04:29:53;102902.44;;;17.26;61.76
82951;BME280;72737;53.332;6.514;2023-11-22T04:32:19;102904.63;;;17.24;61.71
82951;BME280;72737;53.332;6.514;2023-11-22T04:34:47;102896.66;;;17.22;61.99
82951;BME280;72737;53.332;6.514;2023-11-22T04:37:12;102905.19;;;17.26;61.97
82951;BME280;72737;53.332;6.514;2023-11-22T04:39:38;102900.50;;;17.26;62.06
82951;BME280;72737;53.332;6.514;2023-11-22T04:42:04;102894.72;;;17.23;61.96
82951;BME280;72737;53.332;6.514;2023-11-22T04:44:29;102907.94;;;17.26;61.92
82951;BME280;72737;53.332;6.514;2023-11-22T04:46:54;102909.59;;;17.27;61.98
82951;BME280;72737;53.332;6.514;2023-11-22T04:49:20;102920.56;;;17.27;62.24
82951;BME280;72737;53.332;6.514;2023-11-22T04:51:45;102923.91;;;17.29;62.06
82951;BME280;72737;53.332;6.514;2023-11-22T04:54:11;102928.03;;;17.31;61.98
82951;BME280;72737;53.332;6.514;2023-11-22T04:56:36;102924.19;;;17.32;61.97
82951;BME280;72737;53.332;6.514;2023-11-22T04:59:02;102926.69;;;17.34;61.90
82951;BME280;72737;53.332;6.514;2023-11-22T05:01:32;102923.94;;;17.34;61.78
82951;BME280;72737;53.332;6.514;2023-11-22T05:03:58;102911.84;;;17.35;61.81
82951;BME280;72737;53.332;6.514;2023-11-22T05:06:25;102916.81;;;17.38;61.86
82951;BME280;72737;53.332;6.514;2023-11-22T05:08:52;102905.28;;;17.41;61.57
82951;BME280;72737;53.332;6.514;2023-11-22T05:11:17;102905.28;;;17.41;61.78
82951;BME280;72737;53.332;6.514;2023-11-22T05:13:44;102912.16;;;17.38;61.84
82951;BME280;72737;53.332;6.514;2023-11-22T05:16:09;102913.56;;;17.46;61.69
82951;BME280;72737;53.332;6.514;2023-11-22T05:18:35;102914.13;;;17.48;61.79
82951;BME280;72737;53.332;6.514;2023-11-22T05:21:03;102910.00;;;17.50;61.29
82951;BME280;72737;53.332;6.514;2023-11-22T05:23:29;102896.53;;;17.49;61.39
82951;BME280;72737;53.332;6.514;2023-11-22T05:25:56;102902.59;;;17.51;61.57
82951;BME280;72737;53.332;6.514;2023-11-22T05:28:22;102914.16;;;17.53;61.77
82951;BME280;72737;53.332;6.514;2023-11-22T05:30:47;102928.75;;;17.53;61.36
82951;BME280;72737;53.332;6.514;2023-11-22T05:33:13;102927.34;;;17.56;61.11
82951;BME280;72737;53.332;6.514;2023-11-22T05:35:38;102920.78;;;17.57;61.41
82951;BME280;72737;53.332;6.514;2023-11-22T05:38:04;102911.69;;;17.56;61.24
82951;BME280;72737;53.332;6.514;2023-11-22T05:40:30;102915.28;;;17.57;61.08
82951;BME280;72737;53.332;6.514;2023-11-22T05:42:55;102923.53;;;17.57;61.10
82951;BME280;72737;53.332;6.514;2023-11-22T05:45:21;102910.38;;;17.59;61.11
82951;BME280;72737;53.332;6.514;2023-11-22T05:47:46;102905.72;;;17.60;61.49
82951;BME280;72737;53.332;6.514;2023-11-22T05:50:12;102907.69;;;17.69;61.47
82951;BME280;72737;53.332;6.514;2023-11-22T05:52:37;102900.28;;;17.75;61.40
82951;BME280;72737;53.332;6.514;2023-11-22T05:55:03;102890.13;;;17.75;60.96
82951;BME280;72737;53.332;6.514;2023-11-22T05:57:31;102895.34;;;17.82;60.57
82951;BME280;72737;53.332;6.514;2023-11-22T05:59:56;102884.66;;;17.80;60.54
82951;BME280;72737;53.332;6.514;2023-11-22T06:02:22;102900.03;;;17.81;60.81
82951;BME280;72737;53.332;6.514;2023-11-22T06:04:47;102915.44;;;17.82;60.81
82951;BME280;72737;53.332;6.514;2023-11-22T06:07:13;102911.28;;;17.75;60.73
82951;BME280;72737;53.332;6.514;2023-11-22T06:09:38;102930.81;;;17.78;60.94
82951;BME280;72737;53.332;6.514;2023-11-22T06:12:05;102929.44;;;17.76;60.84
82951;BME280;72737;53.332;6.514;2023-11-22T06:14:30;102923.63;;;17.72;60.54
82951;BME280;72737;53.332;6.514;2023-11-22T06:16:56;102931.41;;;17.80;60.91
82951;BME280;72737;53.332;6.514;2023-11-22T06:19:21;102943.75;;;17.78;60.77
82951;BME280;72737;53.332;6.514;2023-11-22T06:21:47;102952.78;;;17.68;61.59
82951;BME280;72737;53.332;6.514;2023-11-22T06:24:12;102954.91;;;17.61;61.93
82951;BME280;72737;53.332;6.514;2023-11-22T06:26:44;102948.28;;;17.57;61.65
82951;BME280;72737;53.332;6.514;2023-11-22T06:29:13;102944.41;;;17.53;62.13
82951;BME280;72737;53.332;6.514;2023-11-22T06:31:40;102938.63;;;17.49;61.99
82951;BME280;72737;53.332;6.514;2023-11-22T06:34:05;102945.72;;;17.45;61.97
82951;BME280;72737;53.332;6.514;2023-11-22T06:36:31;102947.09;;;17.43;61.97
82951;BME280;72737;53.332;6.514;2023-11-22T06:38:56;102939.63;;;17.38;61.75
82951;BME280;72737;53.332;6.514;2023-11-22T06:41:22;102941.81;;;17.36;61.85
82951;BME280;72737;53.332;6.514;2023-11-22T06:43:47;102936.56;;;17.30;61.83
82951;BME280;72737;53.332;6.514;2023-11-22T06:46:13;102938.16;;;17.26;61.92
82951;BME280;72737;53.332;6.514;2023-11-22T06:48:41;102940.59;;;17.22;62.07
82951;BME280;72737;53.332;6.514;2023-11-22T06:51:07;102928.78;;;17.22;61.72
82951;BME280;72737;53.332;6.514;2023-11-22T06:53:32;102918.41;;;17.29;61.13
82951;BME280;72737;53.332;6.514;2023-11-22T06:55:57;102907.63;;;17.22;61.75
82951;BME280;72737;53.332;6.514;2023-11-22T06:58:23;102910.06;;;17.13;61.43
82951;BME280;72737;53.332;6.514;2023-11-22T07:00:48;102912.22;;;17.11;61.57
82951;BME280;72737;53.332;6.514;2023-11-22T07:03:14;102907.34;;;17.19;61.20
82951;BME280;72737;53.332;6.514;2023-11-22T07:05:41;102905.44;;;17.19;61.20
82951;BME280;72737;53.332;6.514;2023-11-22T07:08:06;102899.66;;;17.21;60.97
82951;BME280;72737;53.332;6.514;2023-11-22T07:10:32;102909.22;;;17.13;61.10
82951;BME280;72737;53.332;6.514;2023-11-22T07:13:00;102915.81;;;17.12;60.48
82951;BME280;72737;53.332;6.514;2023-11-22T07:15:27;102914.44;;;17.09;61.06
82951;BME280;72737;53.332;6.514;2023-11-22T07:17:52;102903.94;;;17.06;61.08
82951;BME280;72737;53.332;6.514;2023-11-22T07:20:18;102905.53;;;16.97;61.58
82951;BME280;72737;53.332;6.514;2023-11-22T07:22:43;102909.06;;;16.93;61.87
82951;BME280;72737;53.332;6.514;2023-11-22T07:25:09;102899.41;;;16.90;61.61
82951;BME280;72737;53.332;6.514;2023-11-22T07:27:49;102905.97;;;16.84;61.87
82951;BME280;72737;53.332;6.514;2023-11-22T07:30:14;102910.00;;;16.77;62.01
82951;BME280;72737;53.332;6.514;2023-11-22T07:32:41;102917.47;;;16.81;61.94
82951;BME280;72737;53.332;6.514;2023-11-22T07:35:07;102921.84;;;16.77;61.95
82951;BME280;72737;53.332;6.514;2023-11-22T07:37:37;102918.25;;;16.77;61.71
82951;BME280;72737;53.332;6.514;2023-11-22T07:40:08;102920.91;;;16.66;61.89
82951;BME280;72737;53.332;6.514;2023-11-22T07:42:35;102927.75;;;16.64;62.26
82951;BME280;72737;53.332;6.514;2023-11-22T07:45:01;102943.91;;;16.60;62.07
82951;BME280;72737;53.332;6.514;2023-11-22T07:47:27;102970.19;;;16.56;62.21
82951;BME280;72737;53.332;6.514;2023-11-22T07:49:53;102963.31;;;16.54;62.23
82951;BME280;72737;53.332;6.514;2023-11-22T07:52:21;102979.72;;;16.49;62.49
82951;BME280;72737;53.332;6.514;2023-11-22T07:54:47;102987.91;;;16.44;62.49
82951;BME280;72737;53.332;6.514;2023-11-22T07:57:13;102987.56;;;16.40;62.49
82951;BME280;72737;53.332;6.514;2023-11-22T07:59:39;102983.19;;;16.39;62.29
82951;BME280;72737;53.332;6.514;2023-11-22T08:02:05;102988.09;;;16.37;62.55
82951;BME280;72737;53.332;6.514;2023-11-22T08:04:36;102979.72;;;16.27;62.48
82951;BME280;72737;53.332;6.514;2023-11-22T08:07:03;102979.34;;;16.18;63.08
82951;BME280;72737;53.332;6.514;2023-11-22T08:09:30;102968.88;;;16.15;62.96
82951;BME280;72737;53.332;6.514;2023-11-22T08:11:58;102965.56;;;16.13;63.39
82951;BME280;72737;53.332;6.514;2023-11-22T08:14:26;102980.91;;;16.09;63.53
82951;BME280;72737;53.332;6.514;2023-11-22T08:16:53;102981.06;;;16.03;63.50
82951;BME280;72737;53.332;6.514;2023-11-22T08:19:19;102980.75;;;15.99;63.99
82951;BME280;72737;53.332;6.514;2023-11-22T08:21:44;102979.94;;;15.99;63.89
82951;BME280;72737;53.332;6.514;2023-11-22T08:24:09;102982.22;;;16.07;63.42
82951;BME280;72737;53.332;6.514;2023-11-22T08:26:38;102984.25;;;16.16;63.12
82951;BME280;72737;53.332;6.514;2023-11-22T08:29:04;102970.06;;;16.19;63.01
82951;BME280;72737;53.332;6.514;2023-11-22T08:31:30;102961.22;;;16.17;63.82
82951;BME280;72737;53.332;6.514;2023-11-22T08:33:55;102942.03;;;16.17;63.21
82951;BME280;72737;53.332;6.514;2023-11-22T08:36:22;102931.25;;;16.11;63.59
82951;BME280;72737;53.332;6.514;2023-11-22T08:38:48;102932.53;;;16.03;63.50
82951;BME280;72737;53.332;6.514;2023-11-22T08:41:14;102936.59;;;16.01;63.44
82951;BME280;72737;53.332;6.514;2023-11-22T08:43:40;102936.75;;;15.89;63.78
82951;BME280;72737;53.332;6.514;2023-11-22T08:46:06;102941.19;;;15.95;63.53
82951;BME280;72737;53.332;6.514;2023-11-22T08:48:34;102948.78;;;15.88;63.68
82951;BME280;72737;53.332;6.514;2023-11-22T08:51:00;102952.16;;;15.95;62.87
82951;BME280;72737;53.332;6.514;2023-11-22T08:53:26;102957.03;;;15.88;63.00
82951;BME280;72737;53.332;6.514;2023-11-22T08:55:52;102946.59;;;15.90;62.71
82951;BME280;72737;53.332;6.514;2023-11-22T08:58:19;102944.47;;;15.92;62.70
82951;BME280;72737;53.332;6.514;2023-11-22T09:00:45;102941.56;;;15.82;63.25
82951;BME280;72737;53.332;6.514;2023-11-22T09:03:11;102928.94;;;15.81;62.77
82951;BME280;72737;53.332;6.514;2023-11-22T09:05:41;102937.63;;;15.73;62.97
82951;BME280;72737;53.332;6.514;2023-11-22T09:08:08;102937.09;;;15.76;62.78
82951;BME280;72737;53.332;6.514;2023-11-22T09:10:39;102939.00;;;15.75;62.69
82951;BME280;72737;53.332;6.514;2023-11-22T09:13:06;102940.47;;;15.61;63.16
82951;BME280;72737;53.332;6.514;2023-11-22T09:15:31;102948.59;;;15.73;62.34
82951;BME280;72737;53.332;6.514;2023-11-22T09:17:59;102942.44;;;15.66;62.91
82951;BME280;72737;53.332;6.514;2023-11-22T09:20:25;102950.66;;;15.66;62.58
82951;BME280;72737;53.332;6.514;2023-11-22T09:22:52;102949.44;;;15.57;62.64
82951;BME280;72737;53.332;6.514;2023-11-22T09:25:22;102958.25;;;15.59;62.81
82951;BME280;72737;53.332;6.514;2023-11-22T09:27:49;102955.91;;;15.51;62.91
82951;BME280;72737;53.332;6.514;2023-11-22T09:30:19;102952.59;;;15.49;62.73
82951;BME280;72737;53.332;6.514;2023-11-22T09:33:14;102952.31;;;15.50;62.61
82951;BME280;72737;53.332;6.514;2023-11-22T09:35:40;102947.28;;;15.42;62.90
82951;BME280;72737;53.332;6.514;2023-11-22T09:38:07;102943.19;;;15.44;62.26
82951;BME280;72737;53.332;6.514;2023-11-22T09:40:45;102936.72;;;15.51;62.09
82951;BME280;72737;53.332;6.514;2023-11-22T09:43:12;102922.19;;;15.50;61.71
82951;BME280;72737;53.332;6.514;2023-11-22T09:45:37;102915.41;;;15.36;62.29
82951;BME280;72737;53.332;6.514;2023-11-22T09:48:24;102913.25;;;15.38;62.51
82951;BME280;72737;53.332;6.514;2023-11-22T09:51:09;102906.44;;;15.40;61.88
82951;BME280;72737;53.332;6.514;2023-11-22T09:56:08;102922.72;;;15.30;62.11
82951;BME280;72737;53.332;6.514;2023-11-22T09:58:39;102924.53;;;15.25;62.22
82951;BME280;72737;53.332;6.514;2023-11-22T10:01:05;102910.28;;;15.23;62.03
82951;BME280;72737;53.332;6.514;2023-11-22T10:03:33;102916.59;;;15.23;62.05
82951;BME280;72737;53.332;6.514;2023-11-22T10:05:59;102920.41;;;15.22;62.08
82951;BME280;72737;53.332;6.514;2023-11-22T10:08:25;102930.44;;;15.33;61.94
82951;BME280;72737;53.332;6.514;2023-11-22T10:10:53;102923.22;;;15.27;61.60
82951;BME280;72737;53.332;6.514;2023-11-22T10:13:19;102929.94;;;15.20;62.04
82951;BME280;72737;53.332;6.514;2023-11-22T10:15:48;102930.44;;;15.17;62.54
82951;BME280;72737;53.332;6.514;2023-11-22T10:18:14;102934.50;;;15.14;61.97
82951;BME280;72737;53.332;6.514;2023-11-22T10:20:41;102941.66;;;15.15;61.58
82951;BME280;72737;53.332;6.514;2023-11-22T10:23:11;102944.91;;;15.12;62.05
82951;BME280;72737;53.332;6.514;2023-11-22T10:25:43;102936.59;;;15.07;62.19
82951;BME280;72737;53.332;6.514;2023-11-22T10:28:09;102934.84;;;15.18;61.55
82951;BME280;72737;53.332;6.514;2023-11-22T10:30:34;102929.28;;;15.13;62.07
82951;BME280;72737;53.332;6.514;2023-11-22T10:33:02;102899.84;;;15.03;61.90
82951;BME280;72737;53.332;6.514;2023-11-22T10:35:29;102883.97;;;15.05;62.09
82951;BME280;72737;53.332;6.514;2023-11-22T10:37:55;102855.00;;;15.09;61.72
82951;BME280;72737;53.332;6.514;2023-11-22T10:40:20;102846.97;;;15.02;62.12
82951;BME280;72737;53.332;6.514;2023-11-22T10:42:47;102828.06;;;15.01;61.29
82951;BME280;72737;53.332;6.514;2023-11-22T10:45:15;102812.72;;;15.00;61.50
82951;BME280;72737;53.332;6.514;2023-11-22T10:47:42;102805.63;;;15.04;61.34
82951;BME280;72737;53.332;6.514;2023-11-22T10:50:08;102794.28;;;14.95;61.98
82951;BME280;72737;53.332;6.514;2023-11-22T10:52:36;102782.09;;;15.03;61.25
82951;BME280;72737;53.332;6.514;2023-11-22T10:55:05;102779.78;;;14.95;61.17
82951;BME280;72737;53.332;6.514;2023-11-22T10:57:55;102779.38;;;15.03;61.48
82951;BME280;72737;53.332;6.514;2023-11-22T11:00:22;102765.59;;;14.98;60.86
82951;BME280;72737;53.332;6.514;2023-11-22T11:02:54;102760.97;;;14.98;61.12
82951;BME280;72737;53.332;6.514;2023-11-22T11:05:28;102756.88;;;15.01;61.10
82951;BME280;72737;53.332;6.514;2023-11-22T11:08:01;102757.63;;;14.96;60.72
82951;BME280;72737;53.332;6.514;2023-11-22T11:10:28;102767.09;;;14.89;61.56
82951;BME280;72737;53.332;6.514;2023-11-22T11:12:53;102769.91;;;14.94;60.94
82951;BME280;72737;53.332;6.514;2023-11-22T11:15:20;102778.13;;;14.94;60.74
82951;BME280;72737;53.332;6.514;2023-11-22T11:17:47;102774.31;;;14.95;60.96
82951;BME280;72737;53.332;6.514;2023-11-22T11:20:18;102755.59;;;14.87;60.87
82951;BME280;72737;53.332;6.514;2023-11-22T11:22:47;102749.03;;;14.88;61.20
82951;BME280;72737;53.332;6.514;2023-11-22T11:25:15;102750.19;;;14.92;60.55
82951;BME280;72737;53.332;6.514;2023-11-22T11:27:44;102753.69;;;14.87;60.63
82951;BME280;72737;53.332;6.514;2023-11-22T11:32:58;102746.22;;;14.83;60.91
82951;BME280;72737;53.332;6.514;2023-11-22T11:35:43;102745.13;;;14.84;60.76
82951;BME280;72737;53.332;6.514;2023-11-22T11:38:12;102739.72;;;14.89;60.86
82951;BME280;72737;53.332;6.514;2023-11-22T11:40:43;102730.13;;;14.86;60.37
82951;BME280;72737;53.332;6.514;2023-11-22T11:43:10;102724.31;;;14.83;60.63
82951;BME280;72737;53.332;6.514;2023-11-22T11:45:42;102721.53;;;14.78;60.59
82951;BME280;72737;53.332;6.514;2023-11-22T11:48:15;102726.47;;;14.81;60.94
82951;BME280;72737;53.332;6.514;2023-11-22T11:50:42;102717.59;;;14.74;60.73
82951;BME280;72737;53.332;6.514;2023-11-22T11:53:11;102717.19;;;14.82;60.46
82951;BME280;72737;53.332;6.514;2023-11-22T11:55:37;102722.41;;;14.83;60.64
82951;BME280;72737;53.332;6.514;2023-11-22T11:58:06;102711.72;;;14.82;60.70
82951;BME280;72737;53.332;6.514;2023-11-22T12:00:38;102691.97;;;14.80;60.55
82951;BME280;72737;53.332;6.514;2023-11-22T12:03:08;102702.28;;;14.73;60.32
82951;BME280;72737;53.332;6.514;2023-11-22T12:05:37;102690.81;;;14.76;60.14
82951;BME280;72737;53.332;6.514;2023-11-22T12:08:03;102694.06;;;14.73;60.47
82951;BME280;72737;53.332;6.514;2023-11-22T12:10:28;102674.34;;;14.71;60.30
82951;BME280;72737;53.332;6.514;2023-11-22T12:12:55;102673.81;;;14.74;60.32
82951;BME280;72737;53.332;6.514;2023-11-22T12:15:20;102669.44;;;14.73;59.73
82951;BME280;72737;53.332;6.514;2023-11-22T12:17:48;102676.75;;;14.67;60.41
82951;BME280;72737;53.332;6.514;2023-11-22T12:20:16;102666.63;;;14.68;60.24
82951;BME280;72737;53.332;6.514;2023-11-22T12:22:44;102667.84;;;14.77;59.63
82951;BME280;72737;53.332;6.514;2023-11-22T12:25:10;102665.13;;;14.77;59.28
82951;BME280;72737;53.332;6.514;2023-11-22T12:27:44;102656.25;;;14.70;59.74
82951;BME280;72737;53.332;6.514;2023-11-22T12:30:34;102649.38;;;14.67;59.92
82951;BME280;72737;53.332;6.514;2023-11-22T12:33:07;102649.88;;;14.64;59.49
82951;BME280;72737;53.332;6.514;2023-11-22T12:35:33;102659.00;;;14.70;59.93
82951;BME280;72737;53.332;6.514;2023-11-22T12:38:00;102660.03;;;14.64;59.74
82951;BME280;72737;53.332;6.514;2023-11-22T12:40:27;102642.94;;;14.56;59.30
82951;BME280;72737;53.332;6.514;2023-11-22T12:42:53;102638.88;;;14.59;59.41
82951;BME280;72737;53.332;6.514;2023-11-22T12:45:22;102642.19;;;14.61;59.76
82951;BME280;72737;53.332;6.514;2023-11-22T12:47:52;102628.19;;;14.57;59.20
82951;BME280;72737;53.332;6.514;2023-11-22T12:50:37;102636.41;;;14.57;59.37
82951;BME280;72737;53.332;6.514;2023-11-22T12:53:14;102632.00;;;14.56;59.28
82951;BME280;72737;53.332;6.514;2023-11-22T12:55:47;102625.84;;;14.66;59.26